sensor_id;sensor_type;location;lat;lon;timestamp;temperature;humidity
60848;DHT22;46681;47.696;9.140;2024-03-08T00:01:59;10.90;52.00
60848;DHT22;46681;47.696;9.140;2024-03-08T00:04:25;10.90;52.00
60848;DHT22;46681;47.696;9.140;2024-03-08T00:06:50;10.90;51.90
60848;DHT22;46681;47.696;9.140;2024-03-08T00:09:16;10.90;51.80
60848;DHT22;46681;47.696;9.140;2024-03-08T00:11:41;10.90;51.80
60848;DHT22;46681;47.696;9.140;2024-03-08T00:14:07;10.90;51.70
60848;DHT22;46681;47.696;9.140;2024-03-08T00:16:34;10.90;51.70
60848;DHT22;46681;47.696;9.140;2024-03-08T00:18:59;10.90;51.70
60848;DHT22;46681;47.696;9.140;2024-03-08T00:21:25;10.90;51.70
60848;DHT22;46681;47.696;9.140;2024-03-08T00:23:52;10.90;51.60
60848;DHT22;46681;47.696;9.140;2024-03-08T00:26:23;10.90;51.60
60848;DHT22;46681;47.696;9.140;2024-03-08T00:28:48;10.90;51.60
60848;DHT22;46681;47.696;9.140;2024-03-08T00:31:14;10.90;51.60
60848;DHT22;46681;47.696;9.140;2024-03-08T00:33:40;10.90;51.60
60848;DHT22;46681;47.696;9.140;2024-03-08T00:36:06;11.00;51.60
60848;DHT22;46681;47.696;9.140;2024-03-08T00:38:31;11.00;51.50
60848;DHT22;46681;47.696;9.140;2024-03-08T00:40:57;11.00;51.50
60848;DHT22;46681;47.696;9.140;2024-03-08T00:43:24;11.00;51.50
60848;DHT22;46681;47.696;9.140;2024-03-08T00:45:49;11.00;51.50
60848;DHT22;46681;47.696;9.140;2024-03-08T00:48:15;11.00;51.50
60848;DHT22;46681;47.696;9.140;2024-03-08T00:50:41;10.90;51.40
60848;DHT22;46681;47.696;9.140;2024-03-08T00:53:08;11.00;51.40
60848;DHT22;46681;47.696;9.140;2024-03-08T00:55:34;11.00;51.40
60848;DHT22;46681;47.696;9.140;2024-03-08T00:58:00;10.90;51.30
60848;DHT22;46681;47.696;9.140;2024-03-08T01:00:27;11.00;51.30
60848;DHT22;46681;47.696;9.140;2024-03-08T01:02:53;10.90;51.30
60848;DHT22;46681;47.696;9.140;2024-03-08T01:05:18;10.90;51.30
60848;DHT22;46681;47.696;9.140;2024-03-08T01:07:44;10.90;51.30
60848;DHT22;46681;47.696;9.140;2024-03-08T01:10:09;10.90;51.20
60848;DHT22;46681;47.696;9.140;2024-03-08T01:12:35;11.00;51.20
60848;DHT22;46681;47.696;9.140;2024-03-08T01:15:01;11.00;51.10
60848;DHT22;46681;47.696;9.140;2024-03-08T01:17:26;10.90;51.20
60848;DHT22;46681;47.696;9.140;2024-03-08T01:19:54;10.90;51.10
60848;DHT22;46681;47.696;9.140;2024-03-08T01:22:19;10.90;51.10
60848;DHT22;46681;47.696;9.140;2024-03-08T01:24:49;10.90;51.00
60848;DHT22;46681;47.696;9.140;2024-03-08T01:27:15;11.00;51.00
60848;DHT22;46681;47.696;9.140;2024-03-08T01:29:41;10.90;51.00
60848;DHT22;46681;47.696;9.140;2024-03-08T01:32:08;10.90;50.90
60848;DHT22;46681;47.696;9.140;2024-03-08T01:34:33;10.90;51.30
60848;DHT22;46681;47.696;9.140;2024-03-08T01:36:59;10.90;51.00
60848;DHT22;46681;47.696;9.140;2024-03-08T01:39:24;10.90;50.90
60848;DHT22;46681;47.696;9.140;2024-03-08T01:41:51;11.00;51.00
60848;DHT22;46681;47.696;9.140;2024-03-08T01:44:16;11.00;50.80
60848;DHT22;46681;47.696;9.140;2024-03-08T01:46:42;11.00;50.80
60848;DHT22;46681;47.696;9.140;2024-03-08T01:49:08;11.00;50.80
60848;DHT22;46681;47.696;9.140;2024-03-08T01:51:34;11.00;50.80
60848;DHT22;46681;47.696;9.140;2024-03-08T01:54:01;11.00;50.70
60848;DHT22;46681;47.696;9.140;2024-03-08T01:56:27;11.00;50.80
60848;DHT22;46681;47.696;9.140;2024-03-08T01:58:56;11.00;50.90
60848;DHT22;46681;47.696;9.140;2024-03-08T02:01:21;11.00;50.80
60848;DHT22;46681;47.696;9.140;2024-03-08T02:03:47;10.90;50.70
60848;DHT22;46681;47.696;9.140;2024-03-08T02:06:13;11.00;50.70
60848;DHT22;46681;47.696;9.140;2024-03-08T02:08:39;11.00;50.60
60848;DHT22;46681;47.696;9.140;2024-03-08T02:11:05;11.00;50.70
60848;DHT22;46681;47.696;9.140;2024-03-08T02:13:30;11.00;50.70
60848;DHT22;46681;47.696;9.140;2024-03-08T02:15:57;11.00;50.70
60848;DHT22;46681;47.696;9.140;2024-03-08T02:18:23;11.00;50.70
60848;DHT22;46681;47.696;9.140;2024-03-08T02:20:53;11.00;51.00
60848;DHT22;46681;47.696;9.140;2024-03-08T02:23:23;11.10;50.60
60848;DHT22;46681;47.696;9.140;2024-03-08T02:25:49;11.00;50.40
60848;DHT22;46681;47.696;9.140;2024-03-08T02:28:15;11.10;50.50
60848;DHT22;46681;47.696;9.140;2024-03-08T02:30:40;11.00;50.40
60848;DHT22;46681;47.696;9.140;2024-03-08T02:33:07;11.00;50.50
60848;DHT22;46681;47.696;9.140;2024-03-08T02:35:33;11.10;50.50
60848;DHT22;46681;47.696;9.140;2024-03-08T02:38:05;11.10;50.40
60848;DHT22;46681;47.696;9.140;2024-03-08T02:40:31;11.10;50.30
60848;DHT22;46681;47.696;9.140;2024-03-08T02:42:56;11.10;50.30
60848;DHT22;46681;47.696;9.140;2024-03-08T02:45:22;11.10;50.30
60848;DHT22;46681;47.696;9.140;2024-03-08T02:47:47;11.10;50.30
60848;DHT22;46681;47.696;9.140;2024-03-08T02:50:13;11.10;50.30
60848;DHT22;46681;47.696;9.140;2024-03-08T02:52:38;11.00;50.30
60848;DHT22;46681;47.696;9.140;2024-03-08T02:55:05;11.10;50.30
60848;DHT22;46681;47.696;9.140;2024-03-08T02:57:30;11.10;50.30
60848;DHT22;46681;47.696;9.140;2024-03-08T02:59:56;11.10;50.20
60848;DHT22;46681;47.696;9.140;2024-03-08T03:02:22;11.10;50.20
60848;DHT22;46681;47.696;9.140;2024-03-08T03:04:47;11.10;50.20
60848;DHT22;46681;47.696;9.140;2024-03-08T03:07:13;11.10;50.20
60848;DHT22;46681;47.696;9.140;2024-03-08T03:09:38;11.10;50.20
60848;DHT22;46681;47.696;9.140;2024-03-08T03:12:04;11.10;50.20
60848;DHT22;46681;47.696;9.140;2024-03-08T03:14:30;11.10;50.20
60848;DHT22;46681;47.696;9.140;2024-03-08T03:16:55;11.00;50.20
60848;DHT22;46681;47.696;9.140;2024-03-08T03:19:21;11.10;50.30
60848;DHT22;46681;47.696;9.140;2024-03-08T03:21:47;11.10;50.20
60848;DHT22;46681;47.696;9.140;2024-03-08T03:24:13;11.10;50.20
60848;DHT22;46681;47.696;9.140;2024-03-08T03:26:39;11.10;50.10
60848;DHT22;46681;47.696;9.140;2024-03-08T03:29:11;11.10;50.20
60848;DHT22;46681;47.696;9.140;2024-03-08T03:31:36;11.10;50.20
60848;DHT22;46681;47.696;9.140;2024-03-08T03:34:02;11.10;50.20
60848;DHT22;46681;47.696;9.140;2024-03-08T03:36:28;11.10;50.10
60848;DHT22;46681;47.696;9.140;2024-03-08T03:38:54;11.00;50.10
60848;DHT22;46681;47.696;9.140;2024-03-08T03:41:20;11.00;50.20
60848;DHT22;46681;47.696;9.140;2024-03-08T03:43:45;11.00;50.20
60848;DHT22;46681;47.696;9.140;2024-03-08T03:46:11;11.00;50.30
60848;DHT22;46681;47.696;9.140;2024-03-08T03:48:38;11.00;50.20
60848;DHT22;46681;47.696;9.140;2024-03-08T03:51:03;11.00;50.20
60848;DHT22;46681;47.696;9.140;2024-03-08T03:53:29;11.00;50.20
60848;DHT22;46681;47.696;9.140;2024-03-08T03:55:54;11.00;50.10
60848;DHT22;46681;47.696;9.140;2024-03-08T03:58:20;11.10;50.10
60848;DHT22;46681;47.696;9.140;2024-03-08T04:00:45;11.10;50.10
60848;DHT22;46681;47.696;9.140;2024-03-08T04:03:12;11.10;50.10
60848;DHT22;46681;47.696;9.140;2024-03-08T04:05:38;11.00;50.00
60848;DHT22;46681;47.696;9.140;2024-03-08T04:08:04;11.00;50.10
60848;DHT22;46681;47.696;9.140;2024-03-08T04:10:29;10.90;50.10
60848;DHT22;46681;47.696;9.140;2024-03-08T04:12:55;11.00;50.20
60848;DHT22;46681;47.696;9.140;2024-03-08T04:15:22;10.90;50.20
60848;DHT22;46681;47.696;9.140;2024-03-08T04:17:49;10.90;50.10
60848;DHT22;46681;47.696;9.140;2024-03-08T04:20:14;10.90;50.10
60848;DHT22;46681;47.696;9.140;2024-03-08T04:22:40;11.00;50.10
60848;DHT22;46681;47.696;9.140;2024-03-08T04:25:06;11.00;50.10
60848;DHT22;46681;47.696;9.140;2024-03-08T04:27:34;11.00;50.00
60848;DHT22;46681;47.696;9.140;2024-03-08T04:30:03;10.90;50.00
60848;DHT22;46681;47.696;9.140;2024-03-08T04:32:28;11.00;50.00
60848;DHT22;46681;47.696;9.140;2024-03-08T04:34:54;11.00;50.00
60848;DHT22;46681;47.696;9.140;2024-03-08T04:37:19;11.00;50.00
60848;DHT22;46681;47.696;9.140;2024-03-08T04:39:47;10.90;50.30
60848;DHT22;46681;47.696;9.140;2024-03-08T04:42:12;10.90;49.90
60848;DHT22;46681;47.696;9.140;2024-03-08T04:44:39;11.00;50.00
60848;DHT22;46681;47.696;9.140;2024-03-08T04:47:05;11.00;50.40
60848;DHT22;46681;47.696;9.140;2024-03-08T04:49:31;11.00;50.40
60848;DHT22;46681;47.696;9.140;2024-03-08T04:51:57;10.90;50.40
60848;DHT22;46681;47.696;9.140;2024-03-08T04:54:23;11.00;50.60
60848;DHT22;46681;47.696;9.140;2024-03-08T04:56:50;10.90;50.50
60848;DHT22;46681;47.696;9.140;2024-03-08T04:59:16;10.90;50.50
60848;DHT22;46681;47.696;9.140;2024-03-08T05:01:43;11.00;50.60
60848;DHT22;46681;47.696;9.140;2024-03-08T05:04:10;11.00;50.60
60848;DHT22;46681;47.696;9.140;2024-03-08T05:06:41;10.90;50.60
60848;DHT22;46681;47.696;9.140;2024-03-08T05:09:07;11.00;50.60
60848;DHT22;46681;47.696;9.140;2024-03-08T05:11:32;11.00;50.60
60848;DHT22;46681;47.696;9.140;2024-03-08T05:13:58;11.00;50.70
60848;DHT22;46681;47.696;9.140;2024-03-08T05:16:24;11.10;50.60
60848;DHT22;46681;47.696;9.140;2024-03-08T05:18:53;11.20;52.30
60848;DHT22;46681;47.696;9.140;2024-03-08T05:21:18;11.50;52.00
60848;DHT22;46681;47.696;9.140;2024-03-08T05:23:44;11.60;51.10
60848;DHT22;46681;47.696;9.140;2024-03-08T05:26:12;11.70;50.70
60848;DHT22;46681;47.696;9.140;2024-03-08T05:28:38;11.80;50.70
60848;DHT22;46681;47.696;9.140;2024-03-08T05:31:05;11.80;50.30
60848;DHT22;46681;47.696;9.140;2024-03-08T05:33:32;11.90;50.10
60848;DHT22;46681;47.696;9.140;2024-03-08T05:35:57;11.90;49.80
60848;DHT22;46681;47.696;9.140;2024-03-08T05:38:23;12.00;49.90
60848;DHT22;46681;47.696;9.140;2024-03-08T05:40:51;12.00;50.00
60848;DHT22;46681;47.696;9.140;2024-03-08T05:43:17;12.10;49.90
60848;DHT22;46681;47.696;9.140;2024-03-08T05:45:42;12.10;49.70
60848;DHT22;46681;47.696;9.140;2024-03-08T05:48:08;12.20;50.80
60848;DHT22;46681;47.696;9.140;2024-03-08T05:50:37;12.30;51.00
60848;DHT22;46681;47.696;9.140;2024-03-08T05:53:06;12.30;51.00
60848;DHT22;46681;47.696;9.140;2024-03-08T05:55:33;12.40;51.10
60848;DHT22;46681;47.696;9.140;2024-03-08T05:58:00;12.40;50.50
60848;DHT22;46681;47.696;9.140;2024-03-08T06:00:25;12.30;50.10
60848;DHT22;46681;47.696;9.140;2024-03-08T06:02:51;12.30;49.90
60848;DHT22;46681;47.696;9.140;2024-03-08T06:05:17;12.30;50.10
60848;DHT22;46681;47.696;9.140;2024-03-08T06:07:43;12.30;50.00
60848;DHT22;46681;47.696;9.140;2024-03-08T06:10:11;12.40;50.80
60848;DHT22;46681;47.696;9.140;2024-03-08T06:12:41;12.40;50.10
60848;DHT22;46681;47.696;9.140;2024-03-08T06:15:10;12.30;49.70
60848;DHT22;46681;47.696;9.140;2024-03-08T06:17:36;12.30;49.50
60848;DHT22;46681;47.696;9.140;2024-03-08T06:20:02;12.30;49.80
60848;DHT22;46681;47.696;9.140;2024-03-08T06:22:29;12.30;50.30
60848;DHT22;46681;47.696;9.140;2024-03-08T06:24:55;12.40;52.00
60848;DHT22;46681;47.696;9.140;2024-03-08T06:27:22;12.40;51.40
60848;DHT22;46681;47.696;9.140;2024-03-08T06:29:47;12.30;50.60
60848;DHT22;46681;47.696;9.140;2024-03-08T06:32:14;12.20;50.90
60848;DHT22;46681;47.696;9.140;2024-03-08T06:34:42;12.20;50.70
60848;DHT22;46681;47.696;9.140;2024-03-08T06:37:07;12.10;50.50
60848;DHT22;46681;47.696;9.140;2024-03-08T06:39:33;12.00;50.50
60848;DHT22;46681;47.696;9.140;2024-03-08T06:42:00;12.00;50.40
60848;DHT22;46681;47.696;9.140;2024-03-08T06:44:26;11.90;50.30
60848;DHT22;46681;47.696;9.140;2024-03-08T06:46:51;11.90;50.40
60848;DHT22;46681;47.696;9.140;2024-03-08T06:49:18;11.80;50.50
60848;DHT22;46681;47.696;9.140;2024-03-08T06:51:48;11.70;50.40
60848;DHT22;46681;47.696;9.140;2024-03-08T06:54:14;11.70;50.40
60848;DHT22;46681;47.696;9.140;2024-03-08T06:56:39;11.60;50.40
60848;DHT22;46681;47.696;9.140;2024-03-08T06:59:05;11.60;50.40
60848;DHT22;46681;47.696;9.140;2024-03-08T07:01:36;11.50;50.50
60848;DHT22;46681;47.696;9.140;2024-03-08T07:04:05;11.50;50.50
60848;DHT22;46681;47.696;9.140;2024-03-08T07:06:31;11.40;50.50
60848;DHT22;46681;47.696;9.140;2024-03-08T07:08:57;11.40;50.60
60848;DHT22;46681;47.696;9.140;2024-03-08T07:11:24;11.30;50.60
60848;DHT22;46681;47.696;9.140;2024-03-08T07:13:54;11.30;50.70
60848;DHT22;46681;47.696;9.140;2024-03-08T07:16:25;11.20;50.80
60848;DHT22;46681;47.696;9.140;2024-03-08T07:18:50;11.20;50.80
60848;DHT22;46681;47.696;9.140;2024-03-08T07:21:16;11.10;50.80
60848;DHT22;46681;47.696;9.140;2024-03-08T07:23:43;11.10;50.80
60848;DHT22;46681;47.696;9.140;2024-03-08T07:26:16;11.10;50.90
60848;DHT22;46681;47.696;9.140;2024-03-08T07:28:42;11.00;50.90
60848;DHT22;46681;47.696;9.140;2024-03-08T07:31:14;11.00;51.00
60848;DHT22;46681;47.696;9.140;2024-03-08T07:33:40;11.00;51.00
60848;DHT22;46681;47.696;9.140;2024-03-08T07:36:07;11.00;51.00
60848;DHT22;46681;47.696;9.140;2024-03-08T07:38:36;11.00;51.00
60848;DHT22;46681;47.696;9.140;2024-03-08T07:41:01;11.00;51.10
60848;DHT22;46681;47.696;9.140;2024-03-08T07:43:32;11.00;51.10
60848;DHT22;46681;47.696;9.140;2024-03-08T07:45:58;11.00;51.00
60848;DHT22;46681;47.696;9.140;2024-03-08T07:48:24;11.00;51.50
60848;DHT22;46681;47.696;9.140;2024-03-08T07:51:18;11.00;51.60
60848;DHT22;46681;47.696;9.140;2024-03-08T07:56:50;11.10;51.40
60848;DHT22;46681;47.696;9.140;2024-03-08T07:59:23;11.10;51.30
60848;DHT22;46681;47.696;9.140;2024-03-08T08:01:51;11.10;51.30
60848;DHT22;46681;47.696;9.140;2024-03-08T08:04:17;11.10;51.10
60848;DHT22;46681;47.696;9.140;2024-03-08T08:06:44;11.10;51.50
60848;DHT22;46681;47.696;9.140;2024-03-08T08:09:13;11.10;51.00
60848;DHT22;46681;47.696;9.140;2024-03-08T08:11:39;11.10;51.10
60848;DHT22;46681;47.696;9.140;2024-03-08T08:14:04;11.10;51.00
60848;DHT22;46681;47.696;9.140;2024-03-08T08:16:30;11.10;51.00
60848;DHT22;46681;47.696;9.140;2024-03-08T08:18:55;11.10;51.00
60848;DHT22;46681;47.696;9.140;2024-03-08T08:21:31;11.10;51.10
60848;DHT22;46681;47.696;9.140;2024-03-08T08:24:03;11.10;51.20
60848;DHT22;46681;47.696;9.140;2024-03-08T08:26:31;11.10;51.10
60848;DHT22;46681;47.696;9.140;2024-03-08T08:28:57;11.10;51.20
60848;DHT22;46681;47.696;9.140;2024-03-08T08:31:25;11.00;51.10
60848;DHT22;46681;47.696;9.140;2024-03-08T08:33:56;11.00;51.10
60848;DHT22;46681;47.696;9.140;2024-03-08T08:36:22;11.00;51.10
60848;DHT22;46681;47.696;9.140;2024-03-08T08:38:47;11.10;51.20
60848;DHT22;46681;47.696;9.140;2024-03-08T08:41:13;11.00;51.20
60848;DHT22;46681;47.696;9.140;2024-03-08T08:43:40;11.00;51.30
60848;DHT22;46681;47.696;9.140;2024-03-08T08:46:06;11.10;51.20
60848;DHT22;46681;47.696;9.140;2024-03-08T08:48:33;11.00;51.10
60848;DHT22;46681;47.696;9.140;2024-03-08T08:51:04;11.00;51.10
60848;DHT22;46681;47.696;9.140;2024-03-08T08:53:29;11.00;51.20
60848;DHT22;46681;47.696;9.140;2024-03-08T08:55:56;11.00;51.20
60848;DHT22;46681;47.696;9.140;2024-03-08T08:58:21;11.10;51.20
60848;DHT22;46681;47.696;9.140;2024-03-08T09:00:47;11.10;51.30
60848;DHT22;46681;47.696;9.140;2024-03-08T09:03:14;11.10;51.30
60848;DHT22;46681;47.696;9.140;2024-03-08T09:05:40;11.10;51.30
60848;DHT22;46681;47.696;9.140;2024-03-08T09:08:10;11.10;51.30
60848;DHT22;46681;47.696;9.140;2024-03-08T09:10:40;11.10;51.20
60848;DHT22;46681;47.696;9.140;2024-03-08T09:13:06;11.10;51.30
60848;DHT22;46681;47.696;9.140;2024-03-08T09:15:47;11.10;51.20
60848;DHT22;46681;47.696;9.140;2024-03-08T09:18:16;11.10;51.30
60848;DHT22;46681;47.696;9.140;2024-03-08T09:20:44;11.10;51.30
60848;DHT22;46681;47.696;9.140;2024-03-08T09:23:10;11.10;51.30
60848;DHT22;46681;47.696;9.140;2024-03-08T09:25:36;11.10;51.30
60848;DHT22;46681;47.696;9.140;2024-03-08T09:28:06;11.10;51.30
60848;DHT22;46681;47.696;9.140;2024-03-08T09:30:32;11.10;51.40
60848;DHT22;46681;47.696;9.140;2024-03-08T09:32:58;11.20;51.50
60848;DHT22;46681;47.696;9.140;2024-03-08T09:35:36;11.10;51.30
60848;DHT22;46681;47.696;9.140;2024-03-08T09:38:01;11.10;51.70
60848;DHT22;46681;47.696;9.140;2024-03-08T09:40:35;11.20;51.60
60848;DHT22;46681;47.696;9.140;2024-03-08T09:43:02;11.20;51.30
60848;DHT22;46681;47.696;9.140;2024-03-08T09:45:32;11.20;51.20
60848;DHT22;46681;47.696;9.140;2024-03-08T09:48:11;11.20;51.10
60848;DHT22;46681;47.696;9.140;2024-03-08T09:50:39;11.30;51.00
60848;DHT22;46681;47.696;9.140;2024-03-08T09:53:23;11.30;51.00
60848;DHT22;46681;47.696;9.140;2024-03-08T09:55:55;11.40;50.90
60848;DHT22;46681;47.696;9.140;2024-03-08T09:58:20;11.50;50.80
60848;DHT22;46681;47.696;9.140;2024-03-08T10:00:46;11.60;50.70
60848;DHT22;46681;47.696;9.140;2024-03-08T10:03:11;11.60;50.60
60848;DHT22;46681;47.696;9.140;2024-03-08T10:05:38;11.70;50.60
60848;DHT22;46681;47.696;9.140;2024-03-08T10:08:11;11.70;50.50
60848;DHT22;46681;47.696;9.140;2024-03-08T10:10:55;11.70;50.90
60848;DHT22;46681;47.696;9.140;2024-03-08T10:13:39;11.80;50.40
60848;DHT22;46681;47.696;9.140;2024-03-08T10:16:23;11.80;50.40
60848;DHT22;46681;47.696;9.140;2024-03-08T10:18:50;11.80;50.40
60848;DHT22;46681;47.696;9.140;2024-03-08T10:21:24;11.80;50.40
60848;DHT22;46681;47.696;9.140;2024-03-08T10:23:57;11.80;50.40
60848;DHT22;46681;47.696;9.140;2024-03-08T10:26:25;11.90;50.20
60848;DHT22;46681;47.696;9.140;2024-03-08T10:28:55;11.80;50.30
60848;DHT22;46681;47.696;9.140;2024-03-08T10:31:23;11.80;50.30
60848;DHT22;46681;47.696;9.140;2024-03-08T10:33:53;11.80;50.30
60848;DHT22;46681;47.696;9.140;2024-03-08T10:36:28;11.80;50.30
60848;DHT22;46681;47.696;9.140;2024-03-08T10:39:01;11.80;50.40
60848;DHT22;46681;47.696;9.140;2024-03-08T10:41:33;11.80;50.40
60848;DHT22;46681;47.696;9.140;2024-03-08T10:47:19;11.80;50.40
60848;DHT22;46681;47.696;9.140;2024-03-08T10:50:23;11.80;50.40
60848;DHT22;46681;47.696;9.140;2024-03-08T10:52:43;11.80;50.40
60848;DHT22;46681;47.696;9.140;2024-03-08T10:55:13;11.80;50.50
60848;DHT22;46681;47.696;9.140;2024-03-08T10:57:43;11.80;50.40
60848;DHT22;46681;47.696;9.140;2024-03-08T11:00:10;11.90;50.40
60848;DHT22;46681;47.696;9.140;2024-03-08T11:02:45;11.90;50.40
60848;DHT22;46681;47.696;9.140;2024-03-08T11:10:58;11.90;50.40
60848;DHT22;46681;47.696;9.140;2024-03-08T11:13:42;11.90;50.60
60848;DHT22;46681;47.696;9.140;2024-03-08T11:16:10;11.90;50.40
60848;DHT22;46681;47.696;9.140;2024-03-08T11:18:54;11.80;50.30
60848;DHT22;46681;47.696;9.140;2024-03-08T11:21:24;11.90;50.40
60848;DHT22;46681;47.696;9.140;2024-03-08T11:24:00;11.90;50.50
60848;DHT22;46681;47.696;9.140;2024-03-08T11:26:33;11.90;50.40
60848;DHT22;46681;47.696;9.140;2024-03-08T11:29:33;11.90;50.30
60848;DHT22;46681;47.696;9.140;2024-03-08T11:32:17;12.00;50.30
60848;DHT22;46681;47.696;9.140;2024-03-08T11:34:53;12.00;50.30
60848;DHT22;46681;47.696;9.140;2024-03-08T11:37:25;12.10;50.20
60848;DHT22;46681;47.696;9.140;2024-03-08T11:39:56;12.10;50.00
60848;DHT22;46681;47.696;9.140;2024-03-08T11:42:35;12.10;50.00
60848;DHT22;46681;47.696;9.140;2024-03-08T11:45:20;12.20;49.90
60848;DHT22;46681;47.696;9.140;2024-03-08T11:47:47;12.30;49.90
60848;DHT22;46681;47.696;9.140;2024-03-08T11:50:58;12.30;49.90
60848;DHT22;46681;47.696;9.140;2024-03-08T11:53:28;12.40;49.80
60848;DHT22;46681;47.696;9.140;2024-03-08T11:56:20;12.40;49.80
60848;DHT22;46681;47.696;9.140;2024-03-08T11:58:57;12.40;49.70
60848;DHT22;46681;47.696;9.140;2024-03-08T12:01:30;12.50;49.80
60848;DHT22;46681;47.696;9.140;2024-03-08T12:04:13;12.50;49.70
60848;DHT22;46681;47.696;9.140;2024-03-08T12:07:02;12.60;49.60
60848;DHT22;46681;47.696;9.140;2024-03-08T12:09:31;12.60;49.50
60848;DHT22;46681;47.696;9.140;2024-03-08T12:11:58;12.80;49.30
60848;DHT22;46681;47.696;9.140;2024-03-08T12:14:33;12.90;48.90
60848;DHT22;46681;47.696;9.140;2024-03-08T12:17:05;13.00;48.80
60848;DHT22;46681;47.696;9.140;2024-03-08T12:19:38;13.20;48.40
60848;DHT22;46681;47.696;9.140;2024-03-08T12:22:24;13.50;47.70
60848;DHT22;46681;47.696;9.140;2024-03-08T12:25:04;13.80;47.80
60848;DHT22;46681;47.696;9.140;2024-03-08T12:27:37;14.30;47.60
60848;DHT22;46681;47.696;9.140;2024-03-08T12:30:26;14.80;47.30
60848;DHT22;46681;47.696;9.140;2024-03-08T12:32:59;15.20;46.40
60848;DHT22;46681;47.696;9.140;2024-03-08T12:35:31;15.40;45.90
60848;DHT22;46681;47.696;9.140;2024-03-08T12:37:59;15.60;45.30
60848;DHT22;46681;47.696;9.140;2024-03-08T12:40:29;15.50;45.70
60848;DHT22;46681;47.696;9.140;2024-03-08T12:42:56;15.30;45.40
60848;DHT22;46681;47.696;9.140;2024-03-08T12:45:24;15.20;44.60
60848;DHT22;46681;47.696;9.140;2024-03-08T12:47:54;15.60;45.90
60848;DHT22;46681;47.696;9.140;2024-03-08T12:50:25;15.90;45.90
60848;DHT22;46681;47.696;9.140;2024-03-08T12:52:54;16.00;45.30
60848;DHT22;46681;47.696;9.140;2024-03-08T12:55:23;16.20;46.10
60848;DHT22;46681;47.696;9.140;2024-03-08T12:57:50;16.30;45.30
60848;DHT22;46681;47.696;9.140;2024-03-08T13:00:16;16.20;45.20
60848;DHT22;46681;47.696;9.140;2024-03-08T13:02:49;16.10;45.20
60848;DHT22;46681;47.696;9.140;2024-03-08T13:05:16;16.40;45.70
60848;DHT22;46681;47.696;9.140;2024-03-08T13:07:46;16.50;45.10
60848;DHT22;46681;47.696;9.140;2024-03-08T13:10:15;16.80;45.20
60848;DHT22;46681;47.696;9.140;2024-03-08T13:12:50;17.10;44.90
60848;DHT22;46681;47.696;9.140;2024-03-08T13:15:16;17.30;44.50
60848;DHT22;46681;47.696;9.140;2024-03-08T13:17:42;17.50;44.20
60848;DHT22;46681;47.696;9.140;2024-03-08T13:20:11;17.70;44.00
60848;DHT22;46681;47.696;9.140;2024-03-08T13:22:39;17.70;43.50
60848;DHT22;46681;47.696;9.140;2024-03-08T13:25:05;17.60;43.60
60848;DHT22;46681;47.696;9.140;2024-03-08T13:27:33;17.40;43.70
60848;DHT22;46681;47.696;9.140;2024-03-08T13:30:05;17.60;44.00
60848;DHT22;46681;47.696;9.140;2024-03-08T13:32:34;17.60;43.80
60848;DHT22;46681;47.696;9.140;2024-03-08T13:35:01;17.80;44.00
60848;DHT22;46681;47.696;9.140;2024-03-08T13:37:31;18.10;43.70
60848;DHT22;46681;47.696;9.140;2024-03-08T13:40:03;18.30;43.30
60848;DHT22;46681;47.696;9.140;2024-03-08T13:42:33;18.40;43.10
60848;DHT22;46681;47.696;9.140;2024-03-08T13:45:03;18.60;42.80
60848;DHT22;46681;47.696;9.140;2024-03-08T13:47:35;18.70;42.70
60848;DHT22;46681;47.696;9.140;2024-03-08T13:50:05;18.80;42.50
60848;DHT22;46681;47.696;9.140;2024-03-08T13:52:39;19.00;42.40
60848;DHT22;46681;47.696;9.140;2024-03-08T13:55:08;19.10;42.20
60848;DHT22;46681;47.696;9.140;2024-03-08T13:57:34;19.20;42.10
60848;DHT22;46681;47.696;9.140;2024-03-08T14:00:01;19.20;41.70
60848;DHT22;46681;47.696;9.140;2024-03-08T14:02:29;19.20;41.70
60848;DHT22;46681;47.696;9.140;2024-03-08T14:04:57;19.40;41.50
60848;DHT22;46681;47.696;9.140;2024-03-08T14:07:31;19.40;41.50
60848;DHT22;46681;47.696;9.140;2024-03-08T14:10:03;19.50;41.50
60848;DHT22;46681;47.696;9.140;2024-03-08T14:12:29;19.50;41.40
60848;DHT22;46681;47.696;9.140;2024-03-08T14:14:56;19.60;41.30
60848;DHT22;46681;47.696;9.140;2024-03-08T14:17:25;19.60;41.20
60848;DHT22;46681;47.696;9.140;2024-03-08T14:19:57;19.70;41.20
60848;DHT22;46681;47.696;9.140;2024-03-08T14:22:29;19.80;41.00
60848;DHT22;46681;47.696;9.140;2024-03-08T14:24:59;19.70;41.10
60848;DHT22;46681;47.696;9.140;2024-03-08T14:27:30;19.60;41.50
60848;DHT22;46681;47.696;9.140;2024-03-08T14:30:00;19.70;41.00
60848;DHT22;46681;47.696;9.140;2024-03-08T14:32:28;19.80;40.60
60848;DHT22;46681;47.696;9.140;2024-03-08T14:34:58;19.90;40.80
60848;DHT22;46681;47.696;9.140;2024-03-08T14:37:30;19.80;40.30
60848;DHT22;46681;47.696;9.140;2024-03-08T14:40:03;19.70;40.40
60848;DHT22;46681;47.696;9.140;2024-03-08T14:42:38;19.90;40.20
60848;DHT22;46681;47.696;9.140;2024-03-08T14:45:08;19.90;39.90
60848;DHT22;46681;47.696;9.140;2024-03-08T14:47:36;19.60;40.20
60848;DHT22;46681;47.696;9.140;2024-03-08T14:50:09;19.40;40.00
60848;DHT22;46681;47.696;9.140;2024-03-08T14:52:42;19.20;40.40
60848;DHT22;46681;47.696;9.140;2024-03-08T14:55:14;18.90;40.60
60848;DHT22;46681;47.696;9.140;2024-03-08T14:57:44;18.80;41.10
60848;DHT22;46681;47.696;9.140;2024-03-08T15:00:15;18.60;40.90
60848;DHT22;46681;47.696;9.140;2024-03-08T15:02:46;18.40;41.40
60848;DHT22;46681;47.696;9.140;2024-03-08T15:05:19;18.30;41.60
60848;DHT22;46681;47.696;9.140;2024-03-08T15:08:08;18.30;41.50
60848;DHT22;46681;47.696;9.140;2024-03-08T15:10:59;18.30;41.10
60848;DHT22;46681;47.696;9.140;2024-03-08T15:13:28;18.30;41.20
60848;DHT22;46681;47.696;9.140;2024-03-08T15:16:12;18.20;41.50
60848;DHT22;46681;47.696;9.140;2024-03-08T15:18:37;18.10;41.60
60848;DHT22;46681;47.696;9.140;2024-03-08T15:21:05;18.00;41.40
60848;DHT22;46681;47.696;9.140;2024-03-08T15:23:47;17.80;41.60
60848;DHT22;46681;47.696;9.140;2024-03-08T15:26:13;17.70;41.90
60848;DHT22;46681;47.696;9.140;2024-03-08T15:28:51;17.50;42.30
60848;DHT22;46681;47.696;9.140;2024-03-08T15:31:17;17.30;42.50
60848;DHT22;46681;47.696;9.140;2024-03-08T15:34:07;17.20;42.90
60848;DHT22;46681;47.696;9.140;2024-03-08T15:36:33;17.00;43.10
60848;DHT22;46681;47.696;9.140;2024-03-08T15:38:58;16.90;43.40
60848;DHT22;46681;47.696;9.140;2024-03-08T15:41:28;16.70;43.30
60848;DHT22;46681;47.696;9.140;2024-03-08T15:43:57;16.60;43.90
60848;DHT22;46681;47.696;9.140;2024-03-08T15:46:24;16.50;44.00
60848;DHT22;46681;47.696;9.140;2024-03-08T15:48:56;16.40;44.20
60848;DHT22;46681;47.696;9.140;2024-03-08T15:51:21;16.30;44.40
60848;DHT22;46681;47.696;9.140;2024-03-08T15:53:48;16.20;44.50